Terminal Aerodrome Forecast
Issued by NWS

Home | Current Version | Previous Version | Text Only | Print | Product List | Glossary On
Versions: 1 2 3 4 5 6 7 8 9 10 11 12 13 14 15 16
036
FTUS43 KMQT 131131
TAFCMX
TAF
KCMX 131131Z 1312/1412 32011G17KT 1 1/2SM -SHSN OVC025
      TEMPO 1312/1314 BKN015
     FM132300 30007KT 3SM -SHSN BKN025
     FM140400 00000KT P6SM VCSH BKN050
     FM140600 00000KT P6SM SKC=

USA.gov is the U.S. government's official web portal to all federal, state and local government web resources and services.